createdAt,value
2018-01-28T00:00:43.248Z,101852.74
2018-01-28T00:03:11.014Z,101839.27
2018-01-28T00:05:38.778Z,101835.29
2018-01-28T00:08:06.602Z,101816.92
2018-01-28T00:10:34.347Z,101814.88
2018-01-28T00:13:02.201Z,101816.66
2018-01-28T00:15:30.139Z,101829.50
2018-01-28T00:17:58.010Z,101826.95
2018-01-28T00:20:25.765Z,101822.12
2018-01-28T00:22:53.679Z,101804.95
2018-01-28T00:25:21.417Z,101808.69
2018-01-28T00:27:49.350Z,101813.77
2018-01-28T00:30:17.197Z,101806.00
2018-01-28T00:32:45.033Z,101809.87
2018-01-28T00:35:12.893Z,101808.89
2018-01-28T00:37:40.685Z,101798.28
2018-01-28T00:40:08.477Z,101796.64
2018-01-28T00:42:36.284Z,101811.12
2018-01-28T00:45:04.201Z,101811.96
2018-01-28T00:47:32.105Z,101804.33
2018-01-28T00:49:59.857Z,101800.02
2018-01-28T00:52:27.745Z,101788.02
2018-01-28T00:54:55.510Z,101774.02
2018-01-28T00:57:23.418Z,101775.23
2018-01-28T00:59:51.189Z,101782.61
2018-01-28T01:02:19.008Z,101766.30
2018-01-28T01:04:47.607Z,101754.77
2018-01-28T01:07:15.401Z,101775.86
2018-01-28T01:09:43.173Z,101761.01
2018-01-28T01:12:11.112Z,101751.48
2018-01-28T01:14:38.886Z,101769.16
2018-01-28T01:17:06.701Z,101760.16
2018-01-28T01:19:34.472Z,101760.24
2018-01-28T01:22:02.247Z,101752.83
2018-01-28T01:24:30.112Z,101770.80
2018-01-28T01:26:57.996Z,101769.95
2018-01-28T01:29:25.850Z,101766.20
2018-01-28T01:31:53.633Z,101758.42
2018-01-28T01:34:21.434Z,101746.92
2018-01-28T01:36:49.325Z,101722.84
2018-01-28T01:39:17.073Z,101738.20
2018-01-28T01:41:44.986Z,101735.53
2018-01-28T01:44:12.838Z,101754.17
2018-01-28T01:46:40.633Z,101762.41
2018-01-28T01:49:08.588Z,101753.86
2018-01-28T01:51:36.310Z,101732.73
2018-01-28T01:54:04.102Z,101736.08
2018-01-28T01:56:31.846Z,101734.70
2018-01-28T01:58:59.682Z,101729.89
2018-01-28T02:01:27.445Z,101722.79
2018-01-28T02:03:55.212Z,101725.70
2018-01-28T02:06:22.994Z,101732.45
2018-01-28T02:08:50.893Z,101720.00
2018-01-28T02:11:18.629Z,101739.25
2018-01-28T02:13:46.433Z,101737.60
2018-01-28T02:16:14.287Z,101753.64
2018-01-28T02:18:42.108Z,101753.15
2018-01-28T02:21:09.900Z,101749.94
2018-01-28T02:23:37.689Z,101738.58
2018-01-28T02:26:05.456Z,101739.89
2018-01-28T02:28:33.368Z,101741.73
2018-01-28T02:31:01.161Z,101747.93
2018-01-28T02:33:29.121Z,101736.83
2018-01-28T02:35:56.957Z,101722.50
2018-01-28T02:38:24.794Z,101741.03
2018-01-28T02:40:52.560Z,101730.37
2018-01-28T02:43:20.480Z,101719.20
2018-01-28T02:45:48.238Z,101719.59
2018-01-28T02:48:16.049Z,101728.02
2018-01-28T02:50:43.793Z,101722.50
2018-01-28T02:53:11.601Z,101711.87
2018-01-28T02:55:39.454Z,101707.17
2018-01-28T02:58:07.264Z,101712.15
2018-01-28T03:00:35.025Z,101711.88
2018-01-28T03:03:02.938Z,101708.42
2018-01-28T03:05:30.852Z,101725.86
2018-01-28T03:07:58.763Z,101700.95
2018-01-28T03:10:26.648Z,101700.42
2018-01-28T03:12:54.552Z,101710.16
2018-01-28T03:15:22.330Z,101699.09
2018-01-28T03:17:50.256Z,101700.22
2018-01-28T03:20:18.176Z,101698.40
2018-01-28T03:22:46.074Z,101699.51
2018-01-28T03:25:13.824Z,101716.10
2018-01-28T03:27:41.632Z,101737.44
2018-01-28T03:30:09.536Z,101738.93
2018-01-28T03:32:37.366Z,101737.84
2018-01-28T03:35:05.406Z,101732.18
2018-01-28T03:37:33.226Z,101723.62
2018-01-28T03:40:01.075Z,101742.42
2018-01-28T03:42:28.937Z,101744.06
2018-01-28T03:44:56.825Z,101738.37
2018-01-28T03:47:24.578Z,101760.42
2018-01-28T03:49:52.389Z,101754.57
2018-01-28T03:52:20.169Z,101769.59
2018-01-28T03:54:48.062Z,101766.80
2018-01-28T03:57:15.922Z,101753.52
2018-01-28T03:59:43.711Z,101757.98
2018-01-28T04:02:11.468Z,101762.01
2018-01-28T04:04:39.351Z,101776.69
2018-01-28T04:07:07.270Z,101770.98
2018-01-28T04:09:35.154Z,101765.37
2018-01-28T04:12:03.159Z,101765.23
2018-01-28T04:14:31.090Z,101768.83
2018-01-28T04:16:58.842Z,101780.92
2018-01-28T04:19:26.741Z,101784.52
2018-01-28T04:21:54.517Z,101787.68
2018-01-28T04:24:22.334Z,101780.77
2018-01-28T04:26:50.090Z,101776.05
2018-01-28T04:29:17.869Z,101784.44
2018-01-28T04:31:45.732Z,101777.09
2018-01-28T04:34:13.674Z,101777.52
2018-01-28T04:36:41.448Z,101788.58
2018-01-28T04:39:09.250Z,101787.78
2018-01-28T04:41:37.007Z,101799.42
2018-01-28T04:44:04.814Z,101800.55
2018-01-28T04:46:32.571Z,101794.31
2018-01-28T04:49:00.375Z,101803.20
2018-01-28T04:51:28.126Z,101795.59
2018-01-28T04:53:56.028Z,101795.16
2018-01-28T04:56:23.805Z,101810.41
2018-01-28T04:58:51.794Z,101810.98
2018-01-28T05:01:22.194Z,101807.36
2018-01-28T05:03:50.100Z,101807.81
2018-01-28T05:06:17.871Z,101793.55
2018-01-28T05:08:45.883Z,101801.03
2018-01-28T05:11:13.770Z,101809.09
2018-01-28T05:13:41.636Z,101806.17
2018-01-28T05:16:09.527Z,101822.70
2018-01-28T05:18:37.338Z,101825.45
2018-01-28T05:21:05.202Z,101831.44
2018-01-28T05:23:33.114Z,101827.26
2018-01-28T05:26:00.980Z,101834.75
2018-01-28T05:28:28.903Z,101842.21
2018-01-28T05:30:56.707Z,101838.48
2018-01-28T05:33:24.497Z,101833.52
2018-01-28T05:35:52.407Z,101838.21
2018-01-28T05:38:20.137Z,101820.63
2018-01-28T05:40:47.941Z,101819.09
2018-01-28T05:43:15.840Z,101824.13
2018-01-28T05:45:43.620Z,101853.07
2018-01-28T05:48:11.388Z,101855.28
2018-01-28T05:50:39.173Z,101863.92
2018-01-28T05:53:07.105Z,101845.17
2018-01-28T05:55:34.893Z,101864.58
2018-01-28T05:58:02.629Z,101861.56
2018-01-28T06:00:30.435Z,101880.66
2018-01-28T06:02:58.190Z,101876.22
2018-01-28T06:05:26.009Z,101880.11
2018-01-28T06:07:53.763Z,101867.80
2018-01-28T06:10:21.582Z,101882.93
2018-01-28T06:12:49.378Z,101887.64
2018-01-28T06:15:17.177Z,101890.42
2018-01-28T06:17:44.979Z,101867.53
2018-01-28T06:20:12.812Z,101884.16
2018-01-28T06:22:40.659Z,101897.78
2018-01-28T06:25:08.435Z,101890.45
2018-01-28T06:27:36.507Z,101902.91
2018-01-28T06:30:04.326Z,101901.78
2018-01-28T06:32:32.175Z,101901.37
2018-01-28T06:35:00.107Z,101920.22
2018-01-28T06:37:27.984Z,101921.59
2018-01-28T06:39:55.879Z,101933.27
2018-01-28T06:42:23.634Z,101937.70
2018-01-28T06:44:51.545Z,101954.11
2018-01-28T06:47:19.402Z,101943.36
2018-01-28T06:49:47.208Z,101959.37
2018-01-28T06:52:14.956Z,101957.30
2018-01-28T06:54:42.905Z,101952.46
2018-01-28T06:57:10.682Z,101949.00
2018-01-28T06:59:38.440Z,101947.63
2018-01-28T07:02:06.257Z,101959.13
2018-01-28T07:04:34.033Z,101956.80
2018-01-28T07:07:01.892Z,101956.81
2018-01-28T07:09:29.754Z,101955.17
2018-01-28T07:11:57.699Z,101959.77
2018-01-28T07:14:25.574Z,101973.76
2018-01-28T07:16:53.381Z,101981.09
2018-01-28T07:19:21.139Z,101981.77
2018-01-28T07:21:48.942Z,101986.25
2018-01-28T07:24:16.702Z,101988.05
2018-01-28T07:26:44.537Z,101994.14
2018-01-28T07:29:12.330Z,101990.94
2018-01-28T07:31:40.252Z,102002.85
2018-01-28T07:34:08.054Z,101996.05
2018-01-28T07:36:35.830Z,102002.53
2018-01-28T07:39:03.642Z,102005.16
2018-01-28T07:41:31.461Z,102003.45
2018-01-28T07:43:59.221Z,101997.70
2018-01-28T07:46:28.094Z,101999.68
2018-01-28T07:48:55.915Z,101993.48
2018-01-28T07:51:23.829Z,101994.84
2018-01-28T07:53:51.650Z,101999.59
2018-01-28T07:56:19.446Z,102009.17
2018-01-28T07:58:47.266Z,102006.13
2018-01-28T08:01:15.163Z,102006.91
2018-01-28T08:03:42.897Z,102007.75
2018-01-28T08:06:10.850Z,102012.89
2018-01-28T08:08:38.677Z,102014.17
2018-01-28T08:11:06.698Z,102017.08
2018-01-28T08:16:34.742Z,102023.00
2018-01-28T08:19:02.665Z,102004.28
2018-01-28T08:21:30.623Z,102021.20
2018-01-28T08:23:58.750Z,102025.91
2018-01-28T08:26:26.744Z,102022.16
2018-01-28T08:28:54.648Z,102028.40
2018-01-28T08:31:22.583Z,102027.45
2018-01-28T08:33:50.523Z,102018.45
2018-01-28T08:36:18.357Z,102022.64
2018-01-28T08:38:46.260Z,102016.84
2018-01-28T08:41:14.178Z,102014.36
2018-01-28T08:43:42.065Z,102020.09
2018-01-28T08:46:09.994Z,102011.34
2018-01-28T08:48:37.848Z,102031.88
2018-01-28T08:51:05.756Z,102017.89
2018-01-28T08:53:33.580Z,102006.52
2018-01-28T08:56:01.496Z,102027.06
2018-01-28T08:58:29.345Z,102044.41
2018-01-28T09:00:57.281Z,102052.62
2018-01-28T09:03:25.158Z,102044.70
2018-01-28T09:05:53.106Z,102035.80
2018-01-28T09:08:20.983Z,102035.19
2018-01-28T09:10:48.828Z,102037.70
2018-01-28T09:13:17.787Z,102029.67
2018-01-28T09:15:45.680Z,102031.48
2018-01-28T09:18:13.635Z,102033.68
2018-01-28T09:20:41.538Z,102026.48
2018-01-28T09:23:09.501Z,102034.83
2018-01-28T09:25:37.448Z,102022.89
2018-01-28T09:28:05.394Z,102039.41
2018-01-28T09:30:33.245Z,102043.03
2018-01-28T09:33:01.189Z,102032.05
2018-01-28T09:35:29.112Z,102026.23
2018-01-28T09:37:57.071Z,102047.33
2018-01-28T09:40:24.970Z,102045.69
2018-01-28T09:42:53.073Z,102039.01
2018-01-28T09:45:20.866Z,102030.55
2018-01-28T09:47:48.774Z,102044.58
2018-01-28T09:50:16.692Z,102039.85
2018-01-28T09:52:44.611Z,102065.97
2018-01-28T09:55:12.491Z,102066.39
2018-01-28T09:57:40.288Z,102066.52
2018-01-28T10:00:08.043Z,102060.71
2018-01-28T10:02:35.897Z,102064.46
2018-01-28T10:05:03.639Z,102072.25
2018-01-28T10:07:31.556Z,102084.03
2018-01-28T10:09:59.446Z,102086.98
2018-01-28T10:12:27.367Z,102104.76
2018-01-28T10:14:55.234Z,102120.47
2018-01-28T10:17:23.042Z,102124.50
2018-01-28T10:19:50.928Z,102121.55
2018-01-28T10:22:18.918Z,102096.70
2018-01-28T10:24:46.731Z,102094.73
2018-01-28T10:27:14.545Z,102080.30
2018-01-28T10:29:42.435Z,102070.44
2018-01-28T10:32:10.376Z,102075.42
2018-01-28T10:34:38.277Z,102082.92
2018-01-28T10:37:06.185Z,102087.26
2018-01-28T10:39:33.938Z,102089.62
2018-01-28T10:42:01.883Z,102089.62
2018-01-28T10:44:29.659Z,102074.03
2018-01-28T10:46:57.556Z,102065.42
2018-01-28T10:49:25.442Z,102073.06
2018-01-28T10:51:53.456Z,102097.25
2018-01-28T10:54:21.220Z,102101.29
2018-01-28T10:56:48.980Z,102117.01
2018-01-28T10:59:16.786Z,102096.70
2018-01-28T11:01:44.546Z,102107.70
2018-01-28T11:04:12.382Z,102125.48
2018-01-28T11:06:41.346Z,102125.90
2018-01-28T11:09:09.170Z,102116.45
2018-01-28T11:11:36.951Z,102114.23
2018-01-28T11:14:11.557Z,102117.27
2018-01-28T11:16:39.599Z,102123.67
2018-01-28T11:19:07.575Z,102134.25
2018-01-28T11:21:35.402Z,102149.97
2018-01-28T11:24:03.389Z,102137.87
2018-01-28T11:26:31.361Z,102131.88
2018-01-28T11:28:59.158Z,102131.04
2018-01-28T11:31:26.923Z,102115.03
2018-01-28T11:33:54.881Z,102098.21
2018-01-28T11:36:22.767Z,102096.41
2018-01-28T11:38:50.629Z,102100.03
2018-01-28T11:41:18.395Z,102080.69
2018-01-28T11:43:46.230Z,102092.95
2018-01-28T11:46:14.031Z,102070.56
2018-01-28T11:48:41.988Z,102085.44
2018-01-28T11:51:09.853Z,102101.42
2018-01-28T11:53:37.765Z,102109.62
2018-01-28T11:56:05.634Z,102111.27
2018-01-28T11:58:33.457Z,102108.91
2018-01-28T12:01:01.245Z,102100.44
2018-01-28T12:03:29.146Z,102107.11
2018-01-28T12:05:56.974Z,102108.24
2018-01-28T12:08:24.803Z,102113.25
2018-01-28T12:10:52.793Z,102115.75
2018-01-28T12:13:20.621Z,102121.59
2018-01-28T12:15:48.386Z,102121.17
2018-01-28T12:18:16.242Z,102117.14
2018-01-28T12:20:44.046Z,102124.38
2018-01-28T12:23:11.914Z,102115.45
2018-01-28T12:25:39.697Z,102123.53
2018-01-28T12:28:07.619Z,102115.60
2018-01-28T12:30:35.527Z,102093.61
2018-01-28T12:33:03.539Z,102098.75
2018-01-28T12:35:31.387Z,102096.81
2018-01-28T12:37:59.314Z,102101.69
2018-01-28T12:40:27.152Z,102112.40
2018-01-28T12:42:54.962Z,102112.66
2018-01-28T12:45:22.843Z,102102.91
2018-01-28T12:47:50.769Z,102104.05
2018-01-28T12:50:18.701Z,102096.80
2018-01-28T12:52:46.592Z,102090.52
2018-01-28T12:55:14.511Z,102085.25
2018-01-28T12:57:42.399Z,102082.75
2018-01-28T13:00:10.446Z,102076.59
2018-01-28T13:02:38.304Z,102055.04
2018-01-28T13:05:06.272Z,102056.97
2018-01-28T13:07:34.173Z,102055.84
2018-01-28T13:10:02.088Z,102050.54
2018-01-28T13:12:29.975Z,102055.27
2018-01-28T13:14:57.786Z,102063.48
2018-01-28T13:17:25.812Z,102036.20
2018-01-28T13:19:53.722Z,102040.39
2018-01-28T13:22:21.601Z,102032.33
2018-01-28T13:24:49.510Z,102028.90
2018-01-28T13:27:17.371Z,102014.41
2018-01-28T13:29:45.342Z,102004.67
2018-01-28T13:32:13.234Z,102020.15
2018-01-28T13:34:41.207Z,102016.67
2018-01-28T13:37:09.061Z,102033.09
2018-01-28T13:39:36.975Z,102028.65
2018-01-28T13:42:04.840Z,102037.84
2018-01-28T13:44:32.827Z,102033.80
2018-01-28T13:47:00.706Z,102050.36
2018-01-28T13:49:28.633Z,102056.36
2018-01-28T13:51:56.476Z,102054.00
2018-01-28T13:54:24.420Z,102045.92
2018-01-28T13:56:52.285Z,102058.05
2018-01-28T13:59:20.200Z,102045.37
2018-01-28T14:01:48.066Z,102063.73
2018-01-28T14:04:15.952Z,102058.86
2018-01-28T14:06:43.820Z,102061.25
2018-01-28T14:09:11.651Z,102060.55
2018-01-28T14:11:39.545Z,102064.42
2018-01-28T14:14:07.457Z,102067.23
2018-01-28T14:16:35.222Z,102060.42
2018-01-28T14:19:03.073Z,102065.85
2018-01-28T14:21:30.876Z,102060.55
2018-01-28T14:23:58.729Z,102058.19
2018-01-28T14:26:26.501Z,102036.23
2018-01-28T14:28:54.523Z,102048.16
2018-01-28T14:31:22.492Z,102035.39
2018-01-28T14:33:50.451Z,102041.92
2018-01-28T14:36:18.285Z,102045.25
2018-01-28T14:38:46.074Z,102042.89
2018-01-28T14:41:16.054Z,102060.84
2018-01-28T14:43:43.974Z,102039.70
2018-01-28T14:46:11.885Z,102054.73
2018-01-28T14:48:39.830Z,102056.67
2018-01-28T14:51:07.802Z,102069.05
2018-01-28T14:53:35.613Z,102057.77
2018-01-28T14:56:03.479Z,102057.35
2018-01-28T14:58:31.226Z,102041.25
2018-01-28T15:00:59.022Z,102053.05
2018-01-28T15:03:26.744Z,102057.35
2018-01-28T15:05:54.521Z,102051.24
2018-01-28T15:08:22.262Z,102048.05
2018-01-28T15:10:50.063Z,102060.30
2018-01-28T15:13:17.870Z,102061.94
2018-01-28T15:15:45.693Z,102051.24
2018-01-28T15:18:13.436Z,102049.72
2018-01-28T15:20:41.247Z,102037.63
2018-01-28T15:23:09.006Z,102047.36
2018-01-28T15:25:36.824Z,102047.36
2018-01-28T15:28:04.729Z,102046.80
2018-01-28T15:30:32.508Z,102047.64
2018-01-28T15:33:00.304Z,102042.92
2018-01-28T15:35:28.226Z,102047.65
2018-01-28T15:37:56.148Z,102065.71
2018-01-28T15:40:24.085Z,102053.05
2018-01-28T15:42:52.052Z,102051.11
2018-01-28T15:45:21.090Z,102064.16
2018-01-28T15:47:49.007Z,102060.55
2018-01-28T15:50:16.898Z,102067.94
2018-01-28T15:52:44.815Z,102060.39
2018-01-28T15:55:12.735Z,102071.41
2018-01-28T15:57:40.683Z,102065.14
2018-01-28T16:00:08.590Z,102065.85
2018-01-28T16:02:36.446Z,102057.22
2018-01-28T16:05:04.435Z,102059.88
2018-01-28T16:07:32.322Z,102051.11
2018-01-28T16:10:00.240Z,102057.64
2018-01-28T16:12:28.120Z,102047.23
2018-01-28T16:14:55.933Z,102052.50
2018-01-28T16:17:23.736Z,102044.71
2018-01-28T16:19:51.618Z,102057.63
2018-01-28T16:22:19.534Z,102050.42
2018-01-28T16:24:47.415Z,102031.53
2018-01-28T16:27:16.358Z,102027.06
2018-01-28T16:29:44.100Z,102022.50
2018-01-28T16:32:11.910Z,102023.89
2018-01-28T16:34:39.744Z,102014.16
2018-01-28T16:37:07.578Z,102014.16
2018-01-28T16:39:35.458Z,102010.13
2018-01-28T16:42:03.286Z,102013.44
2018-01-28T16:44:31.018Z,102020.67
2018-01-28T16:46:58.823Z,102015.53
2018-01-28T16:49:26.585Z,102012.34
2018-01-28T16:51:54.434Z,102018.45
2018-01-28T16:54:22.184Z,102027.47
2018-01-28T16:56:50.003Z,102024.83
2018-01-28T16:59:17.806Z,102019.70
2018-01-28T17:01:45.628Z,102024.13
2018-01-28T17:04:13.382Z,102030.25
2018-01-28T17:06:41.228Z,102034.42
2018-01-28T17:09:09.591Z,102033.00
2018-01-28T17:11:41.591Z,102026.75
2018-01-28T17:14:23.726Z,102026.89
2018-01-28T17:16:57.768Z,102022.72
2018-01-28T17:19:26.162Z,102022.42
2018-01-28T17:21:55.664Z,102021.86
2018-01-28T17:24:24.398Z,102025.35
2018-01-28T17:27:02.039Z,102014.23
2018-01-28T17:29:30.745Z,102019.36
2018-01-28T17:32:09.293Z,102010.64
2018-01-28T17:34:38.155Z,102008.42
2018-01-28T17:37:06.995Z,102001.05
2018-01-28T17:39:35.384Z,102002.00
2018-01-28T17:42:14.935Z,102007.43
2018-01-28T17:44:44.327Z,102003.81
2018-01-28T17:47:15.315Z,102008.94
2018-01-28T17:49:44.819Z,102008.40
2018-01-28T17:52:15.918Z,102005.20
2018-01-28T17:54:44.922Z,102006.31
2018-01-28T17:57:16.469Z,102009.66
2018-01-28T17:59:48.429Z,102004.25
2018-01-28T18:02:21.153Z,101999.66
2018-01-28T18:04:51.537Z,101993.14
2018-01-28T18:07:20.813Z,101995.92
2018-01-28T18:09:50.859Z,101997.45
2018-01-28T18:12:21.797Z,101993.69
2018-01-28T18:14:50.543Z,101996.62
2018-01-28T18:17:23.271Z,101996.48
2018-01-28T18:19:53.946Z,101999.14
2018-01-28T18:22:24.349Z,101990.39
2018-01-28T18:24:55.966Z,101988.30
2018-01-28T18:27:24.602Z,101988.59
2018-01-28T18:29:56.342Z,101985.11
2018-01-28T18:32:28.795Z,101984.02
2018-01-28T18:34:58.476Z,101981.50
2018-01-28T18:37:26.995Z,101975.69
2018-01-28T18:39:57.005Z,101974.42
2018-01-28T18:42:27.350Z,101978.72
2018-01-28T18:44:58.456Z,101966.64
2018-01-28T18:47:32.717Z,101975.52
2018-01-28T18:50:01.243Z,101974.13
2018-01-28T18:52:30.637Z,101971.48
2018-01-28T18:55:04.388Z,101966.90
2018-01-28T18:57:35.308Z,101975.23
2018-01-28T19:00:05.050Z,101967.44
2018-01-28T19:02:34.873Z,101983.44
2018-01-28T19:05:05.012Z,101979.69
2018-01-28T19:07:35.144Z,101971.21
2018-01-28T19:10:04.267Z,101966.88
2018-01-28T19:12:35.146Z,101968.27
2018-01-28T19:15:04.803Z,101973.40
2018-01-28T19:17:34.574Z,101969.40
2018-01-28T19:20:03.432Z,101975.08
2018-01-28T19:22:34.217Z,101961.86
2018-01-28T19:25:05.495Z,101963.23
2018-01-28T19:27:36.130Z,101966.86
2018-01-28T19:30:06.253Z,101967.28
2018-01-28T19:32:36.300Z,101962.69
2018-01-28T19:35:06.005Z,101962.25
2018-01-28T19:37:35.333Z,101962.66
2018-01-28T19:40:08.155Z,101960.44
2018-01-28T19:42:38.814Z,101958.36
2018-01-28T19:45:07.537Z,101962.91
2018-01-28T19:47:38.365Z,101957.77
2018-01-28T19:50:08.350Z,101971.23
2018-01-28T19:52:37.532Z,101959.55
2018-01-28T19:55:05.931Z,101964.44
2018-01-28T19:57:35.622Z,101961.23
2018-01-28T20:00:05.291Z,101960.93
2018-01-28T20:02:34.857Z,101961.48
2018-01-28T20:05:04.490Z,101955.77
2018-01-28T20:07:33.572Z,101957.18
2018-01-28T20:10:05.603Z,101943.80
2018-01-28T20:12:35.649Z,101937.80
2018-01-28T20:15:05.754Z,101930.28
2018-01-28T20:17:35.113Z,101935.83
2018-01-28T20:20:05.617Z,101944.59
2018-01-28T20:22:34.410Z,101943.61
2018-01-28T20:25:04.883Z,101943.04
2018-01-28T20:27:33.839Z,101941.20
2018-01-28T20:30:03.678Z,101946.62
2018-01-28T20:32:33.456Z,101945.36
2018-01-28T20:35:04.420Z,101932.30
2018-01-28T20:37:34.034Z,101947.44
2018-01-28T20:40:04.504Z,101945.50
2018-01-28T20:42:35.262Z,101939.91
2018-01-28T20:45:03.384Z,101944.78
2018-01-28T20:47:33.979Z,101946.98
2018-01-28T20:50:02.363Z,101939.89
2018-01-28T20:52:31.800Z,101936.77
2018-01-28T20:55:03.704Z,101947.16
2018-01-28T20:57:32.535Z,101944.14
2018-01-28T21:00:02.022Z,101939.98
2018-01-28T21:02:31.858Z,101945.25
2018-01-28T21:05:00.331Z,101949.92
2018-01-28T21:07:29.657Z,101936.58
2018-01-28T21:10:00.106Z,101948.86
2018-01-28T21:12:29.531Z,101951.31
2018-01-28T21:15:03.126Z,101953.26
2018-01-28T21:17:36.910Z,101949.06
2018-01-28T21:20:07.543Z,101947.33
2018-01-28T21:22:36.988Z,101941.31
2018-01-28T21:25:06.773Z,101938.27
2018-01-28T21:27:38.235Z,101937.42
2018-01-28T21:30:07.155Z,101937.51
2018-01-28T21:32:36.774Z,101928.15
2018-01-28T21:35:06.787Z,101931.79
2018-01-28T21:37:36.157Z,101927.58
2018-01-28T21:40:07.891Z,101933.58
2018-01-28T21:42:38.434Z,101926.45
2018-01-28T21:45:07.133Z,101928.92
2018-01-28T21:47:37.373Z,101925.41
2018-01-28T21:50:06.775Z,101934.10
2018-01-28T21:52:34.645Z,101932.81
2018-01-28T21:55:04.661Z,101933.67
2018-01-28T21:57:32.729Z,101938.98
2018-01-28T22:00:01.808Z,101938.23
2018-01-28T22:02:31.461Z,101937.54
2018-01-28T22:05:00.278Z,101936.55
2018-01-28T22:07:31.667Z,101931.36
2018-01-28T22:10:01.950Z,101933.84
2018-01-28T22:12:30.660Z,101940.39
2018-01-28T22:15:03.947Z,101936.46
2018-01-28T22:17:33.910Z,101925.30
2018-01-28T22:20:04.639Z,101920.47
2018-01-28T22:22:35.271Z,101927.55
2018-01-28T22:25:06.131Z,101927.03
2018-01-28T22:27:36.438Z,101922.02
2018-01-28T22:30:05.956Z,101929.42
2018-01-28T22:32:35.972Z,101936.78
2018-01-28T22:35:08.380Z,101931.65
2018-01-28T22:37:38.944Z,101938.83
2018-01-28T22:40:07.397Z,101934.38
2018-01-28T22:42:36.409Z,101926.55
2018-01-28T22:45:06.228Z,101920.64
2018-01-28T22:47:36.946Z,101927.05
2018-01-28T22:50:05.903Z,101916.64
2018-01-28T22:52:34.649Z,101918.87
2018-01-28T22:55:04.986Z,101907.19
2018-01-28T22:57:33.859Z,101913.84
2018-01-28T23:00:06.363Z,101925.64
2018-01-28T23:02:35.949Z,101920.78
2018-01-28T23:05:04.428Z,101920.34
2018-01-28T23:07:32.292Z,101922.43
2018-01-28T23:10:01.881Z,101924.27
2018-01-28T23:12:30.887Z,101921.91
2018-01-28T23:15:01.537Z,101922.45
2018-01-28T23:17:31.377Z,101911.66
2018-01-28T23:20:02.187Z,101914.07
2018-01-28T23:22:33.080Z,101906.97
2018-01-28T23:25:02.205Z,101911.06
2018-01-28T23:27:32.724Z,101902.45
2018-01-28T23:30:03.617Z,101913.40
2018-01-28T23:32:31.994Z,101908.41
2018-01-28T23:35:00.771Z,101910.84
2018-01-28T23:37:28.600Z,101909.05
2018-01-28T23:39:57.538Z,101913.52
2018-01-28T23:42:27.225Z,101905.25
2018-01-28T23:44:57.150Z,101910.20
2018-01-28T23:47:24.935Z,101911.55
2018-01-28T23:49:54.868Z,101908.36
2018-01-28T23:52:25.507Z,101918.67
2018-01-28T23:54:55.521Z,101912.95
2018-01-28T23:57:24.541Z,101913.53
2018-01-28T23:59:54.695Z,101906.12
